Time;durP1;ratioP1;P1;durP2;ratioP2;P2;SDS_P1;SDS_P2;PMS_P1;PMS_P2;Temp;Humidity;BMP_temperature;BMP_pressure;BME280_temperature;BME280_humidity;BME280_pressure;Samples;Min_cycle;Max_cycle;Signal;HPM_P1;HPM_P2
2023/07/28 00:01:02;;;;;;;1.50;1.40;;;20.80;78.30;;;;;;5067405;28;20083;-52
2023/07/28 00:03:29;;;;;;;2.00;1.75;;;20.80;78.30;;;;;;5071548;28;20480;-50
2023/07/28 00:05:58;;;;;;;2.13;1.65;;;20.70;78.40;;;;;;5072343;28;20123;-50
2023/07/28 00:08:25;;;;;;;2.22;1.73;;;20.80;78.40;;;;;;5067802;28;20040;-51
2023/07/28 00:10:53;;;;;;;2.03;1.67;;;20.80;78.40;;;;;;5070397;28;20040;-51
2023/07/28 00:13:22;;;;;;;2.85;1.52;;;20.80;78.50;;;;;;5071928;28;20044;-51
2023/07/28 00:15:49;;;;;;;1.77;1.67;;;20.70;78.50;;;;;;5071655;28;20129;-51
2023/07/28 00:18:21;;;;;;;2.03;1.80;;;20.70;78.60;;;;;;5071537;28;20090;-50
2023/07/28 00:20:47;;;;;;;1.88;1.73;;;20.70;78.70;;;;;;5069929;28;20068;-48
2023/07/28 00:23:14;;;;;;;2.50;1.70;;;20.70;78.70;;;;;;5069337;28;20074;-50
2023/07/28 00:25:43;;;;;;;2.95;1.75;;;20.70;78.80;;;;;;5071843;28;20132;-51
2023/07/28 00:28:10;;;;;;;1.88;1.73;;;20.70;78.90;;;;;;5067900;28;20048;-48
2023/07/28 00:30:39;;;;;;;1.75;1.60;;;20.70;78.90;;;;;;5066873;28;20040;-50
2023/07/28 00:33:08;;;;;;;2.88;1.80;;;20.70;79.10;;;;;;5052911;28;20102;-51
2023/07/28 00:35:44;;;;;;;1.70;1.60;;;20.70;79.00;;;;;;5071309;28;20106;-48
2023/07/28 00:38:13;;;;;;;1.70;1.60;;;20.70;79.10;;;;;;5069002;28;20068;-47
2023/07/28 00:40:42;;;;;;;1.60;1.50;;;20.70;79.10;;;;;;5070523;28;20514;-47
2023/07/28 00:43:14;;;;;;;2.22;1.50;;;20.70;79.30;;;;;;5071103;28;20086;-51
2023/07/28 00:45:43;;;;;;;2.97;2.13;;;20.70;79.30;;;;;;5050652;28;20029;-47
2023/07/28 00:48:15;;;;;;;1.60;1.50;;;20.60;79.40;;;;;;5070633;28;20090;-47
2023/07/28 00:50:47;;;;;;;1.48;1.38;;;20.70;79.60;;;;;;5070048;28;20041;-47
2023/07/28 00:53:17;;;;;;;2.10;1.83;;;20.60;79.60;;;;;;5053328;28;20068;-51
2023/07/28 00:55:45;;;;;;;1.58;1.48;;;20.60;79.70;;;;;;5052673;28;20687;-47
2023/07/28 00:58:13;;;;;;;1.90;1.33;;;20.60;79.60;;;;;;5071735;28;20036;-50
2023/07/28 01:00:43;;;;;;;2.03;1.50;;;20.60;79.70;;;;;;5046701;28;20045;-46
2023/07/28 01:03:10;;;;;;;1.92;1.70;;;20.60;79.90;;;;;;5070167;28;20456;-48
2023/07/28 01:05:49;;;;;;;2.95;1.20;;;20.60;80.00;;;;;;5053718;28;20076;-48
2023/07/28 01:08:34;;;;;;;2.25;1.25;;;20.60;80.70;;;;;;5066042;28;20045;-52
2023/07/28 01:11:03;;;;;;;1.70;1.50;;;20.60;80.80;;;;;;5070739;28;20149;-51
2023/07/28 01:13:30;;;;;;;2.45;1.45;;;20.60;80.40;;;;;;5070752;28;20049;-46
2023/07/28 01:16:00;;;;;;;1.65;1.55;;;20.60;80.20;;;;;;5072619;28;20119;-51
2023/07/28 01:18:30;;;;;;;1.38;1.27;;;20.50;80.50;;;;;;5066885;28;20044;-50
2023/07/28 01:21:05;;;;;;;1.58;1.20;;;20.50;81.10;;;;;;5051797;28;20068;-51
2023/07/28 01:24:16;;;;;;;1.30;1.20;;;20.50;80.80;;;;;;5066473;28;20434;-51
2023/07/28 01:26:45;;;;;;;1.50;1.40;;;20.60;81.30;;;;;;5066556;28;20506;-47
2023/07/28 01:29:15;;;;;;;1.65;1.08;;;20.50;80.50;;;;;;5048688;28;20052;-51
2023/07/28 01:31:44;;;;;;;1.40;1.27;;;20.60;80.70;;;;;;5069339;28;20037;-48
2023/07/28 01:34:11;;;;;;;1.88;1.17;;;20.50;80.80;;;;;;5052595;28;20071;-51
2023/07/28 01:36:40;;;;;;;1.05;0.95;;;20.50;80.90;;;;;;5051844;28;20044;-50
2023/07/28 01:39:07;;;;;;;1.02;1.00;;;20.50;81.10;;;;;;5067420;28;20037;-48
2023/07/28 01:41:35;;;;;;;1.48;1.38;;;20.50;81.10;;;;;;5052350;28;20046;-49
2023/07/28 01:44:02;;;;;;;1.40;1.30;;;20.50;81.10;;;;;;5069149;28;20056;-49
2023/07/28 01:46:29;;;;;;;2.67;1.08;;;20.50;81.10;;;;;;5046600;28;20041;-50
2023/07/28 01:48:56;;;;;;;1.95;1.30;;;20.50;81.30;;;;;;5069352;28;20043;-46
2023/07/28 01:51:25;;;;;;;1.30;1.20;;;20.50;81.50;;;;;;5068489;28;20033;-50
2023/07/28 01:53:54;;;;;;;1.77;1.38;;;20.50;81.50;;;;;;5062364;28;20076;-51
2023/07/28 01:56:21;;;;;;;1.58;1.48;;;20.50;81.70;;;;;;5070970;28;20068;-48
2023/07/28 01:58:48;;;;;;;1.65;1.55;;;20.50;81.50;;;;;;5067108;28;20090;-49
2023/07/28 02:01:15;;;;;;;1.80;1.55;;;20.50;81.60;;;;;;5062286;28;20036;-52
2023/07/28 02:03:44;;;;;;;2.15;1.52;;;20.50;81.80;;;;;;5070320;23;20103;-48
2023/07/28 02:06:13;;;;;;;1.42;1.27;;;20.50;81.80;;;;;;5048204;28;20133;-50
2023/07/28 02:08:40;;;;;;;2.85;1.42;;;20.50;81.70;;;;;;5047653;28;20029;-48
2023/07/28 02:11:10;;;;;;;1.35;1.25;;;20.50;81.80;;;;;;5018060;28;20625;-49
2023/07/28 02:13:37;;;;;;;2.33;1.42;;;20.50;82.00;;;;;;5037325;28;20048;-50
2023/07/28 02:16:09;;;;;;;1.30;1.20;;;20.50;81.90;;;;;;5026953;28;20465;-49
2023/07/28 02:18:37;;;;;;;1.50;1.40;;;20.50;82.10;;;;;;5048045;28;20501;-54
2023/07/28 02:21:04;;;;;;;1.02;1.02;;;20.50;81.90;;;;;;5045351;28;20693;-50
2023/07/28 02:23:30;;;;;;;1.80;1.13;;;20.50;82.10;;;;;;5014765;28;20447;-48
2023/07/28 02:25:58;;;;;;;1.30;1.20;;;20.50;82.20;;;;;;5030163;28;20713;-49
2023/07/28 02:28:30;;;;;;;1.83;0.73;;;20.50;82.20;;;;;;5023672;28;20152;-50
2023/07/28 02:30:59;;;;;;;1.20;1.15;;;20.50;82.20;;;;;;5029149;28;20051;-48
2023/07/28 02:33:29;;;;;;;1.13;1.05;;;20.50;82.30;;;;;;5032517;28;20117;-49
2023/07/28 02:35:57;;;;;;;1.08;0.98;;;20.50;82.50;;;;;;5030355;28;20049;-48
2023/07/28 02:38:25;;;;;;;1.60;1.50;;;20.60;82.40;;;;;;5038785;28;20051;-49
2023/07/28 02:40:58;;;;;;;1.10;1.00;;;20.60;82.40;;;;;;5029995;28;20068;-48
2023/07/28 02:43:24;;;;;;;1.27;1.23;;;20.60;82.40;;;;;;5035241;28;20075;-52
2023/07/28 02:45:57;;;;;;;1.55;1.30;;;20.60;82.40;;;;;;5041173;28;20071;-51
2023/07/28 02:48:25;;;;;;;2.15;1.10;;;20.60;82.60;;;;;;5048891;28;20031;-51
2023/07/28 02:50:52;;;;;;;1.70;0.80;;;20.60;82.30;;;;;;5039115;28;20066;-50
2023/07/28 02:53:29;;;;;;;0.82;0.82;;;20.60;82.40;;;;;;5023739;28;20041;-52
2023/07/28 02:55:56;;;;;;;0.98;0.98;;;20.60;82.70;;;;;;5046071;28;20073;-50
2023/07/28 02:58:24;;;;;;;0.75;0.75;;;20.60;82.50;;;;;;5026823;28;20049;-52
2023/07/28 03:00:52;;;;;;;0.98;0.85;;;20.60;82.50;;;;;;5024781;28;20048;-48
2023/07/28 03:03:26;;;;;;;0.90;0.70;;;20.60;82.40;;;;;;5042124;28;20069;-50
2023/07/28 03:05:55;;;;;;;1.02;0.90;;;20.60;82.30;;;;;;5028482;28;20045;-49
2023/07/28 03:08:25;;;;;;;1.10;0.60;;;20.60;82.20;;;;;;5047969;28;20033;-52
2023/07/28 03:10:58;;;;;;;0.85;0.85;;;20.60;82.30;;;;;;5027254;28;20053;-49
2023/07/28 03:13:27;;;;;;;0.60;0.60;;;20.60;82.40;;;;;;5027478;28;20099;-48
2023/07/28 03:15:56;;;;;;;0.65;0.65;;;20.60;82.40;;;;;;5029905;28;20049;-49
2023/07/28 03:18:29;;;;;;;0.70;0.70;;;20.70;82.60;;;;;;5025450;28;20095;-49
2023/07/28 03:21:00;;;;;;;0.90;0.77;;;20.60;82.40;;;;;;5029092;28;20060;-49
2023/07/28 03:23:34;;;;;;;0.50;0.50;;;20.70;82.60;;;;;;5025703;28;20142;-51
2023/07/28 03:26:09;;;;;;;1.00;0.50;;;20.60;82.40;;;;;;5029466;28;20122;-48
2023/07/28 03:28:42;;;;;;;0.80;0.43;;;20.60;82.50;;;;;;5030616;28;20063;-52
2023/07/28 03:31:11;;;;;;;0.60;0.60;;;20.70;82.40;;;;;;5045514;28;20042;-49
2023/07/28 03:33:40;;;;;;;0.63;0.63;;;20.70;82.60;;;;;;5028665;28;20033;-49
2023/07/28 03:36:08;;;;;;;0.50;0.50;;;20.70;82.60;;;;;;5044180;28;20406;-48
2023/07/28 03:38:40;;;;;;;0.70;0.70;;;20.60;82.40;;;;;;5042621;28;20600;-50
2023/07/28 03:41:07;;;;;;;0.50;0.50;;;20.70;82.40;;;;;;5028562;28;20053;-49
2023/07/28 03:43:36;;;;;;;1.65;0.73;;;20.70;82.40;;;;;;5030714;28;20045;-50
2023/07/28 03:46:06;;;;;;;2.25;0.60;;;20.70;82.40;;;;;;5035232;28;20081;-52
2023/07/28 03:48:39;;;;;;;0.57;0.57;;;20.70;82.40;;;;;;5030481;28;20057;-48
2023/07/28 03:51:07;;;;;;;0.65;0.63;;;20.70;82.80;;;;;;5042885;28;20465;-50
2023/07/28 03:53:35;;;;;;;2.05;0.70;;;20.70;82.40;;;;;;5020971;28;20458;-48
2023/07/28 03:56:05;;;;;;;0.80;0.73;;;20.70;82.40;;;;;;5035383;28;20560;-49
2023/07/28 03:58:38;;;;;;;0.70;0.70;;;20.70;82.50;;;;;;5052098;28;20080;-49
2023/07/28 04:01:08;;;;;;;0.60;0.60;;;20.70;82.50;;;;;;5050503;28;20555;-49
2023/07/28 04:03:35;;;;;;;0.50;0.50;;;20.70;83.00;;;;;;5044977;28;20120;-50
2023/07/28 04:06:11;;;;;;;0.60;0.60;;;20.70;82.40;;;;;;5044047;28;20045;-50
2023/07/28 04:08:40;;;;;;;0.60;0.60;;;20.70;82.70;;;;;;5050299;28;20033;-49
2023/07/28 04:11:10;;;;;;;0.80;0.80;;;20.70;82.40;;;;;;5031812;28;20057;-51
2023/07/28 04:13:36;;;;;;;1.65;0.80;;;20.70;82.40;;;;;;5025548;28;20071;-48
2023/07/28 04:16:03;;;;;;;1.00;0.82;;;20.70;82.70;;;;;;5049068;28;20111;-49
2023/07/28 04:18:31;;;;;;;1.55;0.80;;;20.70;82.80;;;;;;5030487;28;20132;-50
2023/07/28 04:21:00;;;;;;;1.42;0.70;;;20.80;82.80;;;;;;5037439;28;20107;-49
2023/07/28 04:23:27;;;;;;;0.90;0.90;;;20.70;82.80;;;;;;5022475;28;20122;-50
2023/07/28 04:25:53;;;;;;;1.25;0.80;;;20.70;82.80;;;;;;5048774;28;20049;-49
2023/07/28 04:28:24;;;;;;;0.80;0.80;;;20.70;82.80;;;;;;5032554;28;20504;-49
2023/07/28 04:30:51;;;;;;;1.27;1.17;;;20.70;82.70;;;;;;5029442;28;20418;-52
2023/07/28 04:33:40;;;;;;;2.13;1.05;;;20.70;82.70;;;;;;5042529;28;20042;-48
2023/07/28 04:36:09;;;;;;;1.40;1.17;;;20.70;82.80;;;;;;5028696;28;20069;-51
2023/07/28 04:38:36;;;;;;;3.08;1.27;;;20.70;82.70;;;;;;5029842;28;20145;-49
2023/07/28 04:41:03;;;;;;;2.28;1.30;;;20.80;82.70;;;;;;5049693;28;20146;-49
2023/07/28 04:43:46;;;;;;;1.55;1.45;;;20.70;82.70;;;;;;5026796;28;20045;-50
2023/07/28 04:46:13;;;;;;;2.65;1.75;;;20.80;82.90;;;;;;5032084;28;20392;-49
2023/07/28 04:48:42;;;;;;;2.17;1.85;;;20.70;82.80;;;;;;5030585;28;20094;-54
2023/07/28 04:51:29;;;;;;;3.97;2.05;;;20.80;83.00;;;;;;5045889;28;20049;-53
2023/07/28 04:54:14;;;;;;;1.90;1.65;;;20.80;83.10;;;;;;5050030;28;20664;-53
2023/07/28 04:56:41;;;;;;;1.13;0.98;;;20.80;83.10;;;;;;5031987;28;20052;-53
2023/07/28 04:59:07;;;;;;;0.98;0.65;;;20.80;83.20;;;;;;5041766;28;20049;-53
2023/07/28 05:01:34;;;;;;;1.50;1.40;;;20.90;83.20;;;;;;5047898;28;20044;-54
2023/07/28 05:04:01;;;;;;;3.45;2.10;;;20.90;83.10;;;;;;5044797;28;20513;-53
2023/07/28 05:06:30;;;;;;;3.38;2.60;;;20.80;82.90;;;;;;5029028;28;20045;-52
2023/07/28 05:08:56;;;;;;;4.47;4.07;;;20.90;82.90;;;;;;5030108;28;20051;-54
2023/07/28 05:11:32;;;;;;;7.50;5.25;;;20.90;82.80;;;;;;5029491;28;20090;-53
2023/07/28 05:13:59;;;;;;;5.25;4.75;;;20.90;82.70;;;;;;5041242;28;20043;-54
2023/07/28 05:16:26;;;;;;;4.13;3.67;;;20.90;82.90;;;;;;5043751;28;20047;-54
2023/07/28 05:19:03;;;;;;;3.60;2.50;;;20.90;83.20;;;;;;5049820;28;20511;-53
2023/07/28 05:21:49;;;;;;;2.22;2.03;;;20.90;83.10;;;;;;5046971;28;20048;-54
2023/07/28 05:24:19;;;;;;;1.70;1.50;;;20.90;83.10;;;;;;5033043;28;20049;-54
2023/07/28 05:26:46;;;;;;;1.83;1.20;;;21.00;83.10;;;;;;5032198;28;20052;-55
2023/07/28 05:29:13;;;;;;;2.45;1.60;;;20.90;83.10;;;;;;5030283;28;20235;-55
2023/07/28 05:31:41;;;;;;;2.78;2.47;;;21.00;83.20;;;;;;5047539;28;20048;-54
2023/07/28 05:34:18;;;;;;;3.42;2.58;;;21.00;83.20;;;;;;5029768;28;20049;-54
2023/07/28 05:36:45;;;;;;;3.25;2.35;;;21.00;83.20;;;;;;5031149;28;20049;-50
2023/07/28 05:39:12;;;;;;;2.17;1.55;;;21.00;83.20;;;;;;5029091;28;20051;-53
2023/07/28 05:41:43;;;;;;;1.73;1.55;;;21.00;83.30;;;;;;5043211;28;20049;-54
2023/07/28 05:44:11;;;;;;;2.00;1.80;;;21.00;83.20;;;;;;5015196;28;20533;-54
2023/07/28 05:46:38;;;;;;;4.70;2.63;;;21.00;83.20;;;;;;5023380;28;20119;-55
2023/07/28 05:49:05;;;;;;;3.97;3.30;;;21.00;83.00;;;;;;5009663;28;20576;-52
2023/07/28 05:51:32;;;;;;;4.82;3.45;;;21.10;82.90;;;;;;5028600;28;20136;-54
2023/07/28 05:54:00;;;;;;;4.25;3.85;;;21.10;82.90;;;;;;5046692;28;20037;-53
2023/07/28 05:56:26;;;;;;;4.88;4.35;;;21.10;83.10;;;;;;5026096;28;20045;-54
2023/07/28 05:58:53;;;;;;;4.28;3.72;;;21.10;83.20;;;;;;5025880;28;20456;-54
2023/07/28 06:01:20;;;;;;;3.05;2.83;;;21.10;83.20;;;;;;5030002;28;20126;-54
2023/07/28 06:04:06;;;;;;;1.80;1.70;;;21.10;83.30;;;;;;5046827;28;20763;-53
2023/07/28 06:06:39;;;;;;;2.55;2.13;;;21.10;83.10;;;;;;5027255;28;20136;-54
2023/07/28 06:09:06;;;;;;;1.60;1.50;;;21.20;83.40;;;;;;5040900;28;20034;-54
2023/07/28 06:11:34;;;;;;;1.58;1.48;;;21.20;83.40;;;;;;5030113;28;20037;-54
2023/07/28 06:14:02;;;;;;;1.55;0.82;;;21.20;83.60;;;;;;5027901;28;20430;-53
2023/07/28 06:16:31;;;;;;;1.00;1.00;;;21.20;83.60;;;;;;5045541;28;20503;-53
2023/07/28 06:18:58;;;;;;;0.80;0.80;;;21.30;83.70;;;;;;5029466;28;20045;-54
2023/07/28 06:21:25;;;;;;;1.63;0.60;;;21.30;83.70;;;;;;5049117;28;20040;-54
2023/07/28 06:23:52;;;;;;;0.70;0.65;;;21.30;83.50;;;;;;5032093;28;20103;-53
2023/07/28 06:26:19;;;;;;;0.73;0.50;;;21.30;83.40;;;;;;5039025;28;20041;-54
2023/07/28 06:28:46;;;;;;;0.68;0.68;;;21.40;83.20;;;;;;5027420;28;20076;-54
2023/07/28 06:31:13;;;;;;;0.80;0.80;;;21.40;83.30;;;;;;5027731;28;20111;-54
2023/07/28 06:33:42;;;;;;;0.60;0.60;;;21.40;83.30;;;;;;5028727;28;20044;-54
2023/07/28 06:36:09;;;;;;;1.05;1.05;;;21.40;83.40;;;;;;5046822;28;20044;-53
2023/07/28 06:38:35;;;;;;;0.80;0.80;;;21.40;83.30;;;;;;5046173;28;20095;-54
2023/07/28 06:41:04;;;;;;;0.70;0.70;;;21.40;83.30;;;;;;5030629;28;20139;-54
2023/07/28 06:43:31;;;;;;;1.20;0.95;;;21.40;83.40;;;;;;5027377;28;20087;-54
2023/07/28 06:46:00;;;;;;;1.38;1.15;;;21.40;83.40;;;;;;5028007;28;20123;-54
2023/07/28 06:48:28;;;;;;;1.13;1.00;;;21.50;83.20;;;;;;5029995;28;20103;-54
2023/07/28 06:50:55;;;;;;;1.42;1.25;;;21.50;83.20;;;;;;5044347;28;20052;-53
2023/07/28 06:53:21;;;;;;;1.70;1.60;;;21.50;83.10;;;;;;5029048;28;20046;-53
2023/07/28 06:55:48;;;;;;;2.08;1.85;;;21.50;82.90;;;;;;5028664;28;20045;-54
2023/07/28 06:58:18;;;;;;;2.83;2.25;;;21.50;82.90;;;;;;5030265;28;20056;-55
2023/07/28 07:00:45;;;;;;;2.40;2.20;;;21.50;82.80;;;;;;5026968;28;20045;-54
2023/07/28 07:03:13;;;;;;;4.78;3.33;;;21.50;82.70;;;;;;5048231;28;20045;-52
2023/07/28 07:05:40;;;;;;;2.20;2.00;;;21.50;82.80;;;;;;5044834;28;20037;-54
2023/07/28 07:08:06;;;;;;;3.92;2.28;;;21.50;82.80;;;;;;5047617;28;20064;-54
2023/07/28 07:10:33;;;;;;;2.60;2.40;;;21.50;82.70;;;;;;5029177;28;20077;-54
2023/07/28 07:13:00;;;;;;;2.47;2.28;;;21.50;82.80;;;;;;5032447;28;20498;-54
2023/07/28 07:15:26;;;;;;;2.72;2.22;;;21.50;82.70;;;;;;5051964;28;20045;-54
2023/07/28 07:17:54;;;;;;;3.22;2.92;;;21.60;82.80;;;;;;5045401;28;20634;-54
2023/07/28 07:20:21;;;;;;;2.60;2.40;;;21.60;82.80;;;;;;5045437;28;20471;-53
2023/07/28 07:22:47;;;;;;;2.13;1.92;;;21.60;82.80;;;;;;5046836;28;20537;-54
2023/07/28 07:25:14;;;;;;;3.15;2.22;;;21.60;82.70;;;;;;5047146;28;20060;-54
2023/07/28 07:27:42;;;;;;;2.53;2.20;;;21.60;82.50;;;;;;5047258;28;20037;-53
2023/07/28 07:30:09;;;;;;;3.28;2.38;;;21.70;82.50;;;;;;5048313;28;20041;-53
2023/07/28 07:32:36;;;;;;;2.60;2.30;;;21.60;82.30;;;;;;5049979;28;20091;-53
2023/07/28 07:35:03;;;;;;;3.83;2.15;;;21.80;82.60;;;;;;5050409;28;20040;-52
2023/07/28 07:37:31;;;;;;;2.97;2.20;;;21.60;82.20;;;;;;5049645;28;20090;-55
2023/07/28 07:40:00;;;;;;;2.45;2.25;;;21.60;82.40;;;;;;5051854;28;20102;-52
2023/07/28 07:42:28;;;;;;;3.97;2.65;;;21.70;82.50;;;;;;5050665;28;20053;-55
2023/07/28 07:44:55;;;;;;;3.85;2.58;;;21.70;82.30;;;;;;5049837;28;20045;-55
2023/07/28 07:47:23;;;;;;;2.22;2.00;;;21.70;82.10;;;;;;5051940;28;20482;-55
2023/07/28 07:49:50;;;;;;;2.38;2.00;;;21.70;82.20;;;;;;5050505;28;20041;-52
2023/07/28 07:52:17;;;;;;;2.35;2.15;;;21.70;82.50;;;;;;5051420;28;20573;-54
2023/07/28 07:54:44;;;;;;;2.65;2.45;;;21.70;82.50;;;;;;5047416;28;20037;-53
2023/07/28 07:57:10;;;;;;;2.80;2.40;;;21.70;82.60;;;;;;5050689;28;20045;-55
2023/07/28 07:59:37;;;;;;;3.63;2.17;;;21.80;83.10;;;;;;5049693;28;20431;-55
2023/07/28 08:02:04;;;;;;;2.50;2.30;;;21.80;83.10;;;;;;5052494;28;20091;-55
2023/07/28 08:04:31;;;;;;;5.90;2.85;;;21.90;83.20;;;;;;5050461;28;20041;-53
2023/07/28 08:06:59;;;;;;;3.25;2.17;;;21.90;83.00;;;;;;5049367;28;20045;-55
2023/07/28 08:09:25;;;;;;;3.08;2.60;;;22.00;82.80;;;;;;5048330;28;20040;-54
2023/07/28 08:11:52;;;;;;;4.82;2.63;;;22.00;82.40;;;;;;5046240;28;20459;-54
2023/07/28 08:14:19;;;;;;;2.67;2.25;;;22.10;82.40;;;;;;5040349;28;20033;-55
2023/07/28 08:16:46;;;;;;;3.10;2.50;;;22.10;82.20;;;;;;5051510;28;20038;-53
2023/07/28 08:19:13;;;;;;;3.22;1.90;;;22.20;81.90;;;;;;5050585;28;20068;-55
2023/07/28 08:21:39;;;;;;;2.28;2.08;;;22.20;81.80;;;;;;5050389;28;20102;-55
2023/07/28 08:24:06;;;;;;;2.63;2.10;;;22.20;81.80;;;;;;5050225;28;20076;-54
2023/07/28 08:26:33;;;;;;;1.95;1.75;;;22.30;82.00;;;;;;5050990;28;20111;-54
2023/07/28 08:29:00;;;;;;;2.53;2.15;;;22.30;81.90;;;;;;5049903;28;20056;-54
2023/07/28 08:31:26;;;;;;;3.38;1.90;;;22.40;82.20;;;;;;5050630;28;20109;-54
2023/07/28 08:33:53;;;;;;;5.95;2.40;;;22.40;82.00;;;;;;5047200;28;20103;-53
2023/07/28 08:36:20;;;;;;;2.70;2.25;;;22.50;82.00;;;;;;5039486;28;20045;-55
2023/07/28 08:38:46;;;;;;;2.50;2.30;;;22.60;81.70;;;;;;5039088;28;20668;-54
2023/07/28 08:41:14;;;;;;;1.92;1.83;;;22.70;82.10;;;;;;5040864;28;20581;-53
2023/07/28 08:43:41;;;;;;;2.00;1.90;;;22.80;82.50;;;;;;5052077;28;20045;-55
2023/07/28 08:46:08;;;;;;;3.03;1.70;;;22.90;81.30;;;;;;5051266;28;20173;-54
2023/07/28 08:48:37;;;;;;;2.45;1.70;;;23.00;81.50;;;;;;5049958;28;20048;-54
2023/07/28 08:51:04;;;;;;;2.13;1.98;;;23.10;80.80;;;;;;5048674;28;20457;-53
2023/07/28 08:53:31;;;;;;;2.03;1.83;;;23.20;81.00;;;;;;5039394;28;20049;-54
2023/07/28 08:55:57;;;;;;;2.20;1.33;;;23.30;81.30;;;;;;5030862;28;20049;-53
2023/07/28 08:58:24;;;;;;;2.03;1.83;;;23.40;80.90;;;;;;5037953;28;20087;-54
2023/07/28 09:00:52;;;;;;;1.70;1.60;;;23.60;79.80;;;;;;5049568;28;20037;-53
2023/07/28 09:03:20;;;;;;;2.40;1.90;;;23.70;79.00;;;;;;5043949;28;20049;-52
2023/07/28 09:05:47;;;;;;;1.58;1.48;;;23.70;79.20;;;;;;5037055;28;20068;-54
2023/07/28 09:08:17;;;;;;;2.80;1.60;;;23.80;78.30;;;;;;5039143;28;20050;-54
2023/07/28 09:10:46;;;;;;;1.85;1.75;;;23.90;77.80;;;;;;5030216;28;20037;-54
2023/07/28 09:13:13;;;;;;;3.22;1.55;;;23.90;77.40;;;;;;5035631;28;20041;-54
2023/07/28 09:15:44;;;;;;;2.42;1.75;;;24.00;77.40;;;;;;5049001;28;20064;-54
2023/07/28 09:18:14;;;;;;;1.88;1.67;;;24.10;77.50;;;;;;5037508;28;20046;-55
2023/07/28 09:20:42;;;;;;;1.83;1.42;;;24.10;76.90;;;;;;5029283;28;20132;-54
2023/07/28 09:23:09;;;;;;;1.83;1.20;;;24.20;76.70;;;;;;5029749;28;20131;-52
2023/07/28 09:25:38;;;;;;;1.65;1.05;;;24.30;77.00;;;;;;5042514;28;20045;-54
2023/07/28 09:28:05;;;;;;;1.10;1.00;;;24.30;76.60;;;;;;5034009;28;20037;-54
2023/07/28 09:30:49;;;;;;;1.00;1.00;;;24.50;76.00;;;;;;5046436;28;20033;-54
2023/07/28 09:33:34;;;;;;;8.00;1.50;;;24.50;74.60;;;;;;5039877;28;20431;-54
2023/07/28 09:36:12;;;;;;;4.60;1.48;;;24.60;75.50;;;;;;5039217;28;20044;-54
2023/07/28 09:38:41;;;;;;;1.08;1.02;;;24.60;74.60;;;;;;5043632;28;20041;-55
2023/07/28 09:41:10;;;;;;;2.08;1.40;;;24.60;75.00;;;;;;5044626;28;20041;-53
2023/07/28 09:43:39;;;;;;;1.13;1.10;;;24.70;75.60;;;;;;5043391;28;20094;-53
2023/07/28 09:46:10;;;;;;;2.63;1.23;;;24.80;75.60;;;;;;5042743;28;20065;-54
2023/07/28 09:48:38;;;;;;;4.18;1.42;;;24.90;76.10;;;;;;5033095;28;20121;-53
2023/07/28 09:51:14;;;;;;;1.30;0.95;;;25.00;75.30;;;;;;5042024;28;20030;-54
2023/07/28 09:53:48;;;;;;;1.15;1.15;;;25.10;74.20;;;;;;5049260;28;20037;-51
2023/07/28 09:56:18;;;;;;;0.90;0.90;;;25.20;74.90;;;;;;5037049;28;20458;-53
2023/07/28 09:58:51;;;;;;;1.45;1.05;;;25.30;75.30;;;;;;5033472;28;20164;-54
2023/07/28 10:01:19;;;;;;;0.55;0.50;;;25.40;74.00;;;;;;5048575;28;20048;-54
2023/07/28 10:03:47;;;;;;;0.98;0.60;;;25.50;73.70;;;;;;5033059;28;20689;-55
2023/07/28 10:06:16;;;;;;;0.80;0.80;;;25.60;73.20;;;;;;5039846;28;20616;-53
2023/07/28 10:08:44;;;;;;;1.08;0.50;;;25.70;72.20;;;;;;5034938;28;20072;-54
2023/07/28 10:11:12;;;;;;;0.50;0.50;;;25.70;71.60;;;;;;5034211;28;20069;-54
2023/07/28 10:13:44;;;;;;;0.60;0.60;;;25.80;71.20;;;;;;5028890;28;20041;-54
2023/07/28 10:16:10;;;;;;;1.50;0.65;;;25.90;70.50;;;;;;5043701;28;20068;-54
2023/07/28 10:18:37;;;;;;;0.60;0.60;;;26.00;70.90;;;;;;5041215;28;20045;-54
2023/07/28 10:21:13;;;;;;;0.93;0.70;;;26.00;70.70;;;;;;5031854;28;20065;-54
2023/07/28 10:23:39;;;;;;;1.20;0.70;;;26.10;69.60;;;;;;5039447;28;20052;-55
2023/07/28 10:26:06;;;;;;;1.55;0.43;;;26.20;69.90;;;;;;5048782;28;20083;-54
2023/07/28 10:28:43;;;;;;;1.33;0.70;;;26.20;70.00;;;;;;5035263;28;20604;-54
2023/07/28 10:31:11;;;;;;;7.82;0.70;;;26.30;68.50;;;;;;5047081;28;20064;-54
2023/07/28 10:33:39;;;;;;;0.55;0.55;;;26.30;68.10;;;;;;5047291;28;20041;-54
2023/07/28 10:36:15;;;;;;;1.77;0.80;;;26.30;67.70;;;;;;5048969;28;20040;-55
2023/07/28 10:38:43;;;;;;;1.38;0.40;;;26.30;67.50;;;;;;5045906;28;20044;-54
2023/07/28 10:41:13;;;;;;;0.90;0.38;;;26.20;68.10;;;;;;5049724;28;20155;-54
2023/07/28 10:43:41;;;;;;;1.90;0.47;;;26.10;68.10;;;;;;5035299;28;20447;-54
2023/07/28 10:46:10;;;;;;;0.57;0.57;;;25.90;68.00;;;;;;5033932;28;20552;-54
2023/07/28 10:48:43;;;;;;;0.50;0.50;;;25.80;68.50;;;;;;5040626;28;20043;-55
2023/07/28 10:51:11;;;;;;;0.40;0.40;;;25.60;69.40;;;;;;5045969;28;20063;-54
2023/07/28 10:53:38;;;;;;;1.17;0.70;;;25.40;70.10;;;;;;5034407;28;20045;-54
2023/07/28 10:56:08;;;;;;;0.82;0.68;;;25.40;70.90;;;;;;5046596;28;20034;-52
2023/07/28 10:58:37;;;;;;;0.60;0.60;;;25.30;71.50;;;;;;5046098;28;20119;-54
2023/07/28 11:01:04;;;;;;;0.95;0.95;;;25.30;72.10;;;;;;5047691;28;20552;-54
2023/07/28 11:03:30;;;;;;;0.47;0.47;;;25.40;72.30;;;;;;5041505;28;20064;-54
2023/07/28 11:05:57;;;;;;;0.70;0.70;;;25.40;73.20;;;;;;5029308;28;20047;-55
2023/07/28 11:08:25;;;;;;;0.70;0.70;;;25.50;73.70;;;;;;5038197;28;20065;-54
2023/07/28 11:10:51;;;;;;;0.68;0.68;;;25.60;73.70;;;;;;5030610;28;20103;-54
2023/07/28 11:13:18;;;;;;;0.93;0.55;;;25.70;73.50;;;;;;5033858;28;20112;-53
2023/07/28 11:16:04;;;;;;;1.17;0.60;;;25.80;72.90;;;;;;5041548;28;20112;-55
2023/07/28 11:18:33;;;;;;;0.60;0.60;;;25.90;72.00;;;;;;5040139;28;20048;-55
2023/07/28 11:21:00;;;;;;;0.22;0.22;;;26.00;72.00;;;;;;5046720;28;20041;-52
2023/07/28 11:23:28;;;;;;;0.63;0.30;;;26.20;70.60;;;;;;5039417;28;20130;-53
2023/07/28 11:25:55;;;;;;;0.70;0.30;;;26.30;70.20;;;;;;5046325;28;20087;-50
2023/07/28 11:28:22;;;;;;;0.43;0.28;;;26.40;70.60;;;;;;5032734;28;20692;-51
2023/07/28 11:30:49;;;;;;;0.63;0.30;;;26.60;69.80;;;;;;5046944;28;20509;-53
2023/07/28 11:33:17;;;;;;;0.77;0.20;;;26.70;68.10;;;;;;5043269;28;20112;-51
2023/07/28 11:35:46;;;;;;;0.20;0.20;;;26.80;68.90;;;;;;5036362;28;20065;-54
2023/07/28 11:38:14;;;;;;;2.20;0.20;;;26.90;67.20;;;;;;5043966;28;20123;-54
2023/07/28 11:40:41;;;;;;;0.68;0.30;;;27.00;67.50;;;;;;5036923;28;20091;-51
2023/07/28 11:43:08;;;;;;;0.75;0.30;;;27.20;66.80;;;;;;5032947;28;20172;-54
2023/07/28 11:45:35;;;;;;;0.20;0.17;;;27.30;66.80;;;;;;5038383;28;20061;-52
2023/07/28 11:48:06;;;;;;;0.52;0.20;;;27.40;66.10;;;;;;5043815;28;20065;-53
2023/07/28 11:50:41;;;;;;;0.28;0.20;;;27.50;65.00;;;;;;5046154;28;20041;-51
2023/07/28 11:53:09;;;;;;;0.20;0.20;;;27.60;64.80;;;;;;5043430;28;20125;-51
2023/07/28 11:55:37;;;;;;;0.63;0.20;;;27.60;64.30;;;;;;5047619;28;20120;-51
2023/07/28 11:58:05;;;;;;;0.45;0.30;;;27.60;63.60;;;;;;5047822;28;20037;-50
2023/07/28 12:00:37;;;;;;;0.35;0.30;;;27.50;62.70;;;;;;5046256;28;20111;-54
2023/07/28 12:03:12;;;;;;;0.20;0.20;;;27.40;63.20;;;;;;5047076;28;20057;-52
2023/07/28 12:05:59;;;;;;;0.20;0.17;;;27.30;63.60;;;;;;5046772;28;20407;-53
2023/07/28 12:08:39;;;;;;;0.60;0.30;;;27.30;63.00;;;;;;5025530;28;20472;-51
2023/07/28 12:11:13;;;;;;;0.93;0.22;;;27.20;63.80;;;;;;5047511;28;20063;-52
2023/07/28 12:13:52;;;;;;;1.20;0.32;;;27.20;63.70;;;;;;5043151;28;20043;-51
2023/07/28 12:16:37;;;;;;;0.52;0.40;;;27.20;63.80;;;;;;5050448;28;20442;-50
2023/07/28 12:19:07;;;;;;;0.40;0.40;;;27.20;63.50;;;;;;5043984;28;20067;-52
2023/07/28 12:21:34;;;;;;;0.65;0.30;;;27.30;65.00;;;;;;5043553;28;20041;-54
2023/07/28 12:24:02;;;;;;;0.32;0.32;;;27.40;65.20;;;;;;5044826;28;20037;-54
2023/07/28 12:26:31;;;;;;;0.22;0.22;;;27.60;66.30;;;;;;5047944;28;20087;-51
2023/07/28 12:28:58;;;;;;;0.17;0.17;;;27.80;65.30;;;;;;5045178;28;20060;-52
2023/07/28 12:31:35;;;;;;;0.60;0.40;;;28.00;64.80;;;;;;5050213;28;20126;-53
2023/07/28 12:34:12;;;;;;;0.28;0.28;;;28.30;63.30;;;;;;5037135;28;20471;-51
2023/07/28 12:36:51;;;;;;;0.45;0.40;;;28.40;62.60;;;;;;5042946;28;20102;-53
2023/07/28 12:39:20;;;;;;;0.30;0.30;;;28.60;62.20;;;;;;5044622;28;20099;-54
2023/07/28 12:41:49;;;;;;;0.98;0.40;;;28.60;62.40;;;;;;5049333;28;20041;-51
2023/07/28 12:44:37;;;;;;;0.30;0.30;;;28.70;61.70;;;;;;5049233;28;20036;-52
2023/07/28 12:47:07;;;;;;;0.30;0.30;;;28.70;60.90;;;;;;5051895;28;20515;-53
2023/07/28 12:49:36;;;;;;;0.50;0.50;;;28.70;60.90;;;;;;5050482;28;20391;-52
2023/07/28 12:52:08;;;;;;;0.25;0.25;;;28.50;60.30;;;;;;5050797;28;20491;-54
2023/07/28 12:54:44;;;;;;;0.30;0.30;;;28.40;60.70;;;;;;5051286;28;20044;-52
2023/07/28 12:57:12;;;;;;;0.40;0.40;;;28.20;60.40;;;;;;5049966;28;20060;-51
2023/07/28 12:59:40;;;;;;;0.30;0.30;;;28.00;60.30;;;;;;5047958;28;20503;-50